createdAt,value
2018-06-30T00:00:44.783Z,15.14
2018-06-30T00:01:44.684Z,15.47
2018-06-30T00:02:44.683Z,15.3
2018-06-30T00:03:44.644Z,15.39
2018-06-30T00:04:44.665Z,15.43
2018-06-30T00:05:44.651Z,15.45
2018-06-30T00:06:44.766Z,15.39
2018-06-30T00:07:44.828Z,15.15
2018-06-30T00:08:44.642Z,15.29
2018-06-30T00:09:44.637Z,15.12
2018-06-30T00:10:44.617Z,15.05
2018-06-30T00:11:44.612Z,15.24
2018-06-30T00:12:44.815Z,15.28
2018-06-30T00:13:44.626Z,15.23
2018-06-30T00:14:44.698Z,15.13
2018-06-30T00:15:44.628Z,15.05
2018-06-30T00:16:44.628Z,15.36
2018-06-30T00:17:44.753Z,15.4
2018-06-30T00:18:44.612Z,15.24
2018-06-30T00:19:44.631Z,15.11
2018-06-30T00:20:44.611Z,15.27
2018-06-30T00:21:44.619Z,15.21
2018-06-30T00:22:44.603Z,15.09
2018-06-30T00:23:44.621Z,15.46
2018-06-30T00:24:44.601Z,15.42
2018-06-30T00:25:44.639Z,15.32
2018-06-30T00:26:44.603Z,15.29
2018-06-30T00:27:44.609Z,15.26
2018-06-30T00:28:44.605Z,15.19
2018-06-30T00:29:44.614Z,15.14
2018-06-30T00:30:44.615Z,15.38
2018-06-30T00:31:44.607Z,15.43
2018-06-30T00:32:44.624Z,15.17
2018-06-30T00:33:44.655Z,15.31
2018-06-30T00:34:44.753Z,15.15
2018-06-30T00:35:44.628Z,15.15
2018-06-30T00:36:44.638Z,15.33
2018-06-30T00:37:44.622Z,15.26
2018-06-30T00:38:44.602Z,15.27
2018-06-30T00:39:44.626Z,15.03
2018-06-30T00:40:44.629Z,15.21
2018-06-30T00:41:44.648Z,15.22
2018-06-30T00:42:44.690Z,15.28
2018-06-30T00:43:44.640Z,15.25
2018-06-30T00:44:44.667Z,15.18
2018-06-30T00:45:44.656Z,15.01
2018-06-30T00:46:44.634Z,15.28
2018-06-30T00:47:44.678Z,15.37
2018-06-30T00:48:44.661Z,15.31
2018-06-30T00:49:44.625Z,15.34
2018-06-30T00:50:44.845Z,15.21
2018-06-30T00:51:44.622Z,15.3
2018-06-30T00:52:44.643Z,15.01
2018-06-30T00:53:44.769Z,15.35
2018-06-30T00:54:44.606Z,15.3
2018-06-30T00:55:44.644Z,15.31
2018-06-30T00:56:44.642Z,15.08
2018-06-30T00:57:44.598Z,15.3
2018-06-30T00:58:44.595Z,15.23
2018-06-30T00:59:44.599Z,15.28
2018-06-30T01:00:44.677Z,15.25
2018-06-30T01:01:44.610Z,15.34
2018-06-30T01:02:44.686Z,15.35
2018-06-30T01:03:44.650Z,15.15
2018-06-30T01:04:44.608Z,15.02
2018-06-30T01:05:44.611Z,15.31
2018-06-30T01:06:44.871Z,15.31
2018-06-30T01:07:44.629Z,15.24
2018-06-30T01:08:44.632Z,15.28
2018-06-30T01:09:44.615Z,15.27
2018-06-30T01:10:44.622Z,15.23
2018-06-30T01:11:44.644Z,15.21
2018-06-30T01:12:44.707Z,15.16
2018-06-30T01:13:44.825Z,15.22
2018-06-30T01:14:44.706Z,15.22
2018-06-30T01:15:44.604Z,15.26
2018-06-30T01:16:44.693Z,15.28
2018-06-30T01:17:44.640Z,15.21
2018-06-30T01:18:44.630Z,15.11
2018-06-30T01:19:44.736Z,15.16
2018-06-30T01:20:45.118Z,15.06
2018-06-30T01:21:44.620Z,15.19
2018-06-30T01:22:44.604Z,14.91
2018-06-30T01:23:44.631Z,15.02
2018-06-30T01:24:44.598Z,15.09
2018-06-30T01:25:44.610Z,15.05
2018-06-30T01:26:44.608Z,14.86
2018-06-30T01:27:44.598Z,14.89
2018-06-30T01:28:44.600Z,15.07
2018-06-30T01:29:44.611Z,14.95
2018-06-30T01:30:44.615Z,15.16
2018-06-30T01:31:44.616Z,15.12
2018-06-30T01:32:44.586Z,14.93
2018-06-30T01:33:44.593Z,14.92
2018-06-30T01:34:44.600Z,14.94
2018-06-30T01:35:44.614Z,15.08
2018-06-30T01:36:44.596Z,15.06
2018-06-30T01:37:44.576Z,15.04
2018-06-30T01:38:44.589Z,14.95
2018-06-30T01:39:44.606Z,15.11
2018-06-30T01:40:44.595Z,14.99
2018-06-30T01:41:44.604Z,15.03
2018-06-30T01:42:44.604Z,14.86
2018-06-30T01:43:44.614Z,15.06
2018-06-30T01:44:44.604Z,15.05
2018-06-30T01:45:44.611Z,15.03
2018-06-30T01:46:44.609Z,15.01
2018-06-30T01:47:44.632Z,15.07
2018-06-30T01:48:44.607Z,15.03
2018-06-30T01:49:44.704Z,14.98
2018-06-30T01:50:44.725Z,14.78
2018-06-30T01:51:44.631Z,14.97
2018-06-30T01:52:44.941Z,15
2018-06-30T01:53:44.616Z,14.93
2018-06-30T01:54:45.058Z,14.93
2018-06-30T01:55:44.657Z,14.92
2018-06-30T01:56:44.732Z,14.92
2018-06-30T01:57:44.614Z,14.81
2018-06-30T01:58:44.667Z,14.9
2018-06-30T01:59:44.584Z,14.82
2018-06-30T02:00:44.639Z,14.84
2018-06-30T02:01:44.828Z,14.87
2018-06-30T02:02:44.629Z,14.81
2018-06-30T02:03:44.829Z,14.71
2018-06-30T02:04:44.649Z,14.73
2018-06-30T02:05:44.566Z,14.63
2018-06-30T02:06:44.628Z,14.73
2018-06-30T02:07:44.667Z,14.55
2018-06-30T02:08:44.647Z,14.7
2018-06-30T02:09:44.598Z,14.63
2018-06-30T02:10:44.660Z,14.79
2018-06-30T02:11:44.631Z,14.76
2018-06-30T02:12:44.602Z,14.71
2018-06-30T02:13:44.618Z,14.84
2018-06-30T02:14:44.623Z,14.72
2018-06-30T02:15:44.591Z,14.68
2018-06-30T02:16:44.703Z,14.7
2018-06-30T02:17:44.594Z,14.57
2018-06-30T02:18:44.604Z,14.73
2018-06-30T02:19:44.665Z,14.64
2018-06-30T02:20:44.629Z,14.56
2018-06-30T02:21:45.098Z,14.71
2018-06-30T02:22:44.642Z,14.8
2018-06-30T02:23:44.602Z,14.82
2018-06-30T02:24:44.622Z,14.63
2018-06-30T02:25:44.684Z,14.82
2018-06-30T02:26:44.694Z,14.79
2018-06-30T02:27:44.677Z,14.78
2018-06-30T02:28:44.605Z,14.68
2018-06-30T02:29:44.618Z,14.72
2018-06-30T02:30:44.583Z,14.82
2018-06-30T02:31:44.594Z,14.8
2018-06-30T02:32:44.763Z,14.71
2018-06-30T02:33:44.645Z,14.75
2018-06-30T02:34:44.619Z,14.58
2018-06-30T02:35:44.650Z,14.8
2018-06-30T02:36:44.659Z,14.79
2018-06-30T02:37:44.627Z,14.62
2018-06-30T02:38:44.646Z,14.69
2018-06-30T02:39:44.592Z,14.71
2018-06-30T02:40:44.662Z,14.77
2018-06-30T02:41:44.597Z,14.69
2018-06-30T02:42:44.566Z,14.74
2018-06-30T02:43:44.614Z,14.71
2018-06-30T02:44:44.591Z,14.67
2018-06-30T02:45:44.590Z,14.72
2018-06-30T02:46:44.603Z,14.64
2018-06-30T02:47:44.565Z,14.65
2018-06-30T02:48:44.618Z,14.54
2018-06-30T02:49:44.584Z,14.65
2018-06-30T02:50:44.632Z,14.68
2018-06-30T02:51:44.775Z,14.82
2018-06-30T02:52:44.607Z,14.78
2018-06-30T02:53:44.702Z,14.73
2018-06-30T02:54:44.609Z,14.78
2018-06-30T02:55:44.618Z,14.74
2018-06-30T02:56:44.598Z,14.73
2018-06-30T02:57:44.615Z,14.51
2018-06-30T02:58:44.790Z,14.49
2018-06-30T02:59:44.600Z,14.74
2018-06-30T03:00:44.554Z,14.68
2018-06-30T03:01:44.599Z,14.67
2018-06-30T03:02:44.609Z,14.67
2018-06-30T03:03:44.624Z,14.66
2018-06-30T03:04:44.616Z,14.68
2018-06-30T03:05:44.626Z,14.64
2018-06-30T03:06:44.610Z,14.49
2018-06-30T03:07:44.649Z,14.72
2018-06-30T03:08:44.603Z,14.65
2018-06-30T03:09:44.638Z,14.66
2018-06-30T03:10:44.590Z,14.48
2018-06-30T03:11:44.607Z,14.51
2018-06-30T03:12:44.602Z,14.72
2018-06-30T03:13:44.627Z,14.67
2018-06-30T03:14:44.598Z,14.68
2018-06-30T03:15:44.629Z,14.57
2018-06-30T03:16:44.594Z,14.58
2018-06-30T03:17:44.772Z,14.61
2018-06-30T03:18:44.773Z,14.53
2018-06-30T03:19:44.630Z,14.49
2018-06-30T03:20:44.630Z,14.57
2018-06-30T03:21:44.637Z,14.46
2018-06-30T03:22:44.587Z,14.49
2018-06-30T03:23:44.598Z,14.62
2018-06-30T03:24:44.592Z,14.63
2018-06-30T03:25:44.642Z,14.63
2018-06-30T03:26:44.722Z,14.67
2018-06-30T03:27:44.725Z,14.63
2018-06-30T03:28:44.677Z,14.51
2018-06-30T03:29:44.582Z,14.5
2018-06-30T03:30:44.581Z,14.44
2018-06-30T03:31:45.512Z,14.62
2018-06-30T03:32:44.598Z,14.56
2018-06-30T03:33:44.550Z,14.49
2018-06-30T03:34:44.601Z,14.5
2018-06-30T03:35:44.740Z,14.39
2018-06-30T03:36:44.591Z,14.55
2018-06-30T03:37:44.654Z,14.6
2018-06-30T03:38:44.571Z,14.64
2018-06-30T03:39:44.627Z,14.59
2018-06-30T03:40:44.646Z,14.57
2018-06-30T03:41:45.026Z,14.44
2018-06-30T03:42:44.558Z,14.46
2018-06-30T03:43:44.565Z,14.48
2018-06-30T03:44:44.563Z,14.46
2018-06-30T03:45:44.601Z,14.24
2018-06-30T03:46:44.577Z,14.25
2018-06-30T03:47:44.573Z,14.32
2018-06-30T03:48:44.578Z,14.31
2018-06-30T03:49:44.570Z,14.49
2018-06-30T03:50:44.554Z,14.46
2018-06-30T03:51:44.588Z,14.46
2018-06-30T03:52:44.602Z,14.54
2018-06-30T03:53:44.563Z,14.55
2018-06-30T03:54:44.541Z,14.55
2018-06-30T03:55:44.580Z,14.51
2018-06-30T03:56:44.599Z,14.53
2018-06-30T03:57:44.591Z,14.33
2018-06-30T03:58:44.549Z,14.37
2018-06-30T03:59:44.559Z,14.32
2018-06-30T04:00:44.667Z,14.5
2018-06-30T04:01:44.568Z,14.54
2018-06-30T04:02:44.583Z,14.44
2018-06-30T04:03:45.058Z,14.56
2018-06-30T04:04:44.567Z,14.52
2018-06-30T04:05:44.588Z,14.51
2018-06-30T04:06:44.550Z,14.54
2018-06-30T04:07:44.612Z,14.49
2018-06-30T04:08:44.590Z,14.61
2018-06-30T04:09:44.561Z,14.57
2018-06-30T04:10:44.620Z,14.57
2018-06-30T04:11:44.548Z,14.63
2018-06-30T04:12:44.557Z,14.58
2018-06-30T04:13:45.073Z,14.41
2018-06-30T04:14:44.739Z,14.34
2018-06-30T04:15:44.713Z,14.56
2018-06-30T04:16:44.582Z,14.46
2018-06-30T04:17:44.754Z,14.44
2018-06-30T04:18:44.597Z,14.5
2018-06-30T04:19:44.586Z,14.48
2018-06-30T04:20:44.593Z,14.53
2018-06-30T04:21:44.544Z,14.55
2018-06-30T04:22:44.693Z,14.6
2018-06-30T04:23:44.551Z,14.5
2018-06-30T04:24:44.599Z,14.45
2018-06-30T04:25:45.047Z,14.47
2018-06-30T04:26:44.623Z,14.45
2018-06-30T04:27:44.530Z,14.7
2018-06-30T04:28:44.545Z,14.61
2018-06-30T04:29:44.564Z,14.7
2018-06-30T04:30:44.576Z,14.62
2018-06-30T04:31:44.602Z,14.48
2018-06-30T04:32:44.532Z,14.63
2018-06-30T04:33:44.586Z,14.7
2018-06-30T04:34:44.678Z,14.62
2018-06-30T04:35:44.599Z,14.52
2018-06-30T04:36:44.574Z,14.42
2018-06-30T04:37:44.514Z,14.38
2018-06-30T04:38:44.579Z,14.37
2018-06-30T04:39:44.549Z,14.48
2018-06-30T04:40:44.526Z,14.6
2018-06-30T04:41:44.549Z,14.53
2018-06-30T04:42:44.592Z,14.69
2018-06-30T04:43:44.598Z,14.54
2018-06-30T04:44:44.534Z,14.44
2018-06-30T04:45:44.534Z,14.79
2018-06-30T04:46:44.553Z,14.7
2018-06-30T04:47:44.631Z,14.64
2018-06-30T04:48:44.628Z,14.7
2018-06-30T04:49:44.676Z,14.76
2018-06-30T04:50:44.551Z,14.76
2018-06-30T04:51:44.529Z,14.74
2018-06-30T04:52:44.540Z,14.7
2018-06-30T04:53:44.533Z,14.65
2018-06-30T04:54:44.537Z,14.68
2018-06-30T04:55:44.553Z,14.54
2018-06-30T04:56:44.587Z,14.53
2018-06-30T04:57:44.651Z,14.53
2018-06-30T04:58:44.532Z,14.49
2018-06-30T04:59:44.573Z,14.62
2018-06-30T05:00:44.551Z,14.54
2018-06-30T05:01:44.593Z,14.53
2018-06-30T05:02:44.620Z,14.62
2018-06-30T05:03:44.839Z,14.64
2018-06-30T05:04:44.534Z,14.51
2018-06-30T05:05:44.554Z,14.49
2018-06-30T05:06:44.551Z,14.49
2018-06-30T05:07:44.589Z,14.56
2018-06-30T05:08:45.234Z,14.49
2018-06-30T05:09:44.534Z,14.48
2018-06-30T05:10:44.535Z,14.52
2018-06-30T05:11:44.592Z,14.41
2018-06-30T05:12:45.570Z,14.42
2018-06-30T05:13:45.278Z,14.05
2018-06-30T05:14:44.567Z,13.9
2018-06-30T05:15:44.522Z,13.84
2018-06-30T05:16:44.594Z,13.79
2018-06-30T05:17:45.635Z,13.59
2018-06-30T05:18:44.603Z,13.76
2018-06-30T05:19:45.254Z,13.7
2018-06-30T05:20:44.526Z,13.54
2018-06-30T05:21:44.580Z,13.55
2018-06-30T05:22:44.562Z,13.6
2018-06-30T05:23:44.543Z,13.7
2018-06-30T05:24:45.348Z,13.72
2018-06-30T05:25:44.532Z,13.65
2018-06-30T05:26:44.519Z,13.67
2018-06-30T05:27:44.550Z,13.72
2018-06-30T05:28:44.557Z,13.74
2018-06-30T05:29:45.264Z,13.73
2018-06-30T05:30:44.556Z,13.81
2018-06-30T05:31:44.511Z,13.77
2018-06-30T05:32:44.532Z,13.39
2018-06-30T05:33:45.991Z,13.36
2018-06-30T05:34:44.542Z,13.42
2018-06-30T05:35:44.545Z,13.2
2018-06-30T05:36:44.557Z,13.17
2018-06-30T05:37:45.322Z,13.08
2018-06-30T05:38:44.514Z,13.19
2018-06-30T05:39:44.574Z,13.18
2018-06-30T05:40:44.584Z,13.22
2018-06-30T05:41:45.716Z,13.26
2018-06-30T05:42:44.575Z,13.27
2018-06-30T05:43:45.294Z,13.22
2018-06-30T05:44:44.519Z,13.3
2018-06-30T05:45:44.631Z,13.31
2018-06-30T05:46:45.549Z,13.38
2018-06-30T05:47:44.520Z,13.42
2018-06-30T05:48:44.518Z,13.49
2018-06-30T05:49:44.532Z,13.48
2018-06-30T05:50:44.507Z,13.47
2018-06-30T05:51:45.309Z,13.64
2018-06-30T05:52:44.507Z,13.57
2018-06-30T05:53:44.562Z,13.43
2018-06-30T05:54:44.549Z,13.23
2018-06-30T05:55:44.511Z,13.3
2018-06-30T05:56:44.517Z,13.37
2018-06-30T05:57:44.589Z,13.4
2018-06-30T05:58:44.548Z,13.4
2018-06-30T05:59:44.513Z,13.48
2018-06-30T06:00:44.506Z,13.47
2018-06-30T06:01:44.628Z,13.46
2018-06-30T06:02:44.520Z,13.44
2018-06-30T06:03:44.658Z,13.49
2018-06-30T06:04:44.521Z,13.6
2018-06-30T06:05:44.505Z,13.6
2018-06-30T06:06:44.523Z,13.62
2018-06-30T06:07:44.526Z,13.56
2018-06-30T06:08:44.512Z,13.58
2018-06-30T06:09:44.882Z,13.56
2018-06-30T06:10:44.563Z,13.53
2018-06-30T06:11:44.543Z,13.57
2018-06-30T06:12:44.841Z,13.58
2018-06-30T06:13:44.532Z,13.48
2018-06-30T06:14:44.567Z,13.62
2018-06-30T06:15:44.559Z,13.61
2018-06-30T06:16:44.566Z,13.64
2018-06-30T06:17:44.728Z,13.66
2018-06-30T06:18:44.526Z,13.64
2018-06-30T06:19:44.665Z,13.53
2018-06-30T06:20:44.538Z,13.37
2018-06-30T06:21:44.562Z,13.46
2018-06-30T06:22:44.690Z,13.5
2018-06-30T06:23:44.552Z,13.35
2018-06-30T06:24:44.602Z,13.47
2018-06-30T06:25:44.549Z,13.57
2018-06-30T06:26:44.589Z,13.67
2018-06-30T06:27:44.774Z,13.65
2018-06-30T06:28:44.702Z,13.75
2018-06-30T06:29:44.660Z,13.68
2018-06-30T06:30:44.633Z,13.57
2018-06-30T06:31:44.674Z,13.53
2018-06-30T06:32:45.019Z,13.47
2018-06-30T06:33:45.228Z,13.47
2018-06-30T06:34:45.205Z,13.47
2018-06-30T06:35:45.285Z,13.54
2018-06-30T06:36:45.506Z,13.44
2018-06-30T06:37:45.348Z,13.54
2018-06-30T06:38:45.247Z,13.56
2018-06-30T06:39:45.527Z,13.6
2018-06-30T06:40:45.312Z,13.74
2018-06-30T06:41:45.546Z,13.75
2018-06-30T06:42:45.325Z,13.85
2018-06-30T06:43:44.666Z,13.9
2018-06-30T06:44:45.286Z,13.97
2018-06-30T06:45:45.235Z,14.01
2018-06-30T06:46:45.334Z,14
2018-06-30T06:47:45.288Z,14.01
2018-06-30T06:48:45.254Z,13.7
2018-06-30T06:49:44.599Z,13.64
2018-06-30T06:50:45.246Z,13.72
2018-06-30T06:51:45.231Z,13.55
2018-06-30T06:52:45.409Z,13.58
2018-06-30T06:53:45.278Z,13.7
2018-06-30T06:54:45.252Z,13.64
2018-06-30T06:55:45.274Z,13.78
2018-06-30T06:56:44.576Z,13.54
2018-06-30T06:57:45.333Z,13.53
2018-06-30T06:58:45.252Z,13.59
2018-06-30T06:59:44.588Z,13.59
2018-06-30T07:00:45.338Z,13.7
2018-06-30T07:01:45.314Z,13.75
2018-06-30T07:02:44.674Z,13.74
2018-06-30T07:03:44.522Z,14.29
2018-06-30T07:04:45.197Z,14.2
2018-06-30T07:05:44.526Z,14.01
2018-06-30T07:06:45.388Z,13.7
2018-06-30T07:07:44.520Z,13.85
2018-06-30T07:08:44.475Z,13.79
2018-06-30T07:09:44.470Z,13.82
2018-06-30T07:10:44.480Z,13.66
2018-06-30T07:11:44.486Z,13.64
2018-06-30T07:12:44.473Z,13.62
2018-06-30T07:13:44.476Z,13.62
2018-06-30T07:14:44.463Z,13.48
2018-06-30T07:15:44.513Z,13.48
2018-06-30T07:16:44.493Z,13.51
2018-06-30T07:17:44.515Z,13.54
2018-06-30T07:18:45.340Z,13.26
2018-06-30T07:19:44.502Z,13.32
2018-06-30T07:20:44.536Z,13.37
2018-06-30T07:21:44.542Z,13.4
2018-06-30T07:22:44.519Z,13.47
2018-06-30T07:23:44.490Z,13.55
2018-06-30T07:24:44.496Z,13.52
2018-06-30T07:25:44.476Z,13.46
2018-06-30T07:26:45.215Z,13.42
2018-06-30T07:27:45.279Z,13.46
2018-06-30T07:28:45.346Z,13.47
2018-06-30T07:29:45.346Z,13.55
2018-06-30T07:30:45.572Z,13.7
2018-06-30T07:31:45.241Z,13.54
2018-06-30T07:32:44.485Z,13.61
2018-06-30T07:33:46.246Z,13.69
2018-06-30T07:34:44.496Z,13.59
2018-06-30T07:35:44.510Z,13.54
2018-06-30T07:36:44.478Z,13.56
2018-06-30T07:37:45.311Z,13.47
2018-06-30T07:38:45.252Z,13.54
2018-06-30T07:39:45.394Z,13.63
2018-06-30T07:40:44.467Z,13.64
2018-06-30T07:41:44.511Z,13.6
2018-06-30T07:42:44.500Z,13.61
2018-06-30T07:43:44.822Z,13.61
2018-06-30T07:44:45.216Z,13.78
2018-06-30T07:45:44.523Z,13.64
2018-06-30T07:46:44.515Z,13.69
2018-06-30T07:47:45.379Z,13.65
2018-06-30T07:48:44.554Z,13.78
2018-06-30T07:49:44.537Z,13.75
2018-06-30T07:50:44.516Z,13.82
2018-06-30T07:51:44.527Z,13.7
2018-06-30T07:52:44.499Z,13.66
2018-06-30T07:53:44.473Z,13.75
2018-06-30T07:54:44.475Z,13.85
2018-06-30T07:55:44.504Z,13.82
2018-06-30T07:56:44.525Z,14.07
2018-06-30T07:57:44.499Z,13.93
2018-06-30T07:58:44.527Z,14.04
2018-06-30T07:59:44.535Z,14.09
2018-06-30T08:00:44.514Z,14.2
2018-06-30T08:01:44.505Z,14.12
2018-06-30T08:02:44.508Z,14.11
2018-06-30T08:03:44.548Z,13.77
2018-06-30T08:04:44.716Z,13.53
2018-06-30T08:05:44.526Z,13.61
2018-06-30T08:06:44.517Z,13.76
2018-06-30T08:07:44.486Z,13.79
2018-06-30T08:08:44.515Z,13.71
2018-06-30T08:09:44.493Z,13.77
2018-06-30T08:10:44.678Z,13.63
2018-06-30T08:11:44.483Z,13.9
2018-06-30T08:12:44.524Z,13.98
2018-06-30T08:13:44.668Z,13.94
2018-06-30T08:14:44.497Z,13.99
2018-06-30T08:15:44.545Z,13.88
2018-06-30T08:16:44.620Z,13.93
2018-06-30T08:17:44.640Z,14.05
2018-06-30T08:18:44.571Z,13.8
2018-06-30T08:19:44.584Z,14.01
2018-06-30T08:20:44.498Z,13.94
2018-06-30T08:21:44.555Z,13.9
2018-06-30T08:22:44.559Z,13.84
2018-06-30T08:23:44.533Z,13.83
2018-06-30T08:24:44.493Z,13.99
2018-06-30T08:25:44.510Z,13.89
2018-06-30T08:26:44.508Z,13.75
2018-06-30T08:27:44.527Z,13.92
2018-06-30T08:28:44.531Z,13.95
2018-06-30T08:29:44.574Z,14.16
2018-06-30T08:30:44.588Z,14.17
2018-06-30T08:31:44.517Z,14.32
2018-06-30T08:32:44.499Z,14.4
2018-06-30T08:33:44.785Z,14.25
2018-06-30T08:34:44.543Z,14.26
2018-06-30T08:35:44.520Z,14.3
2018-06-30T08:36:44.568Z,14.27
2018-06-30T08:37:44.635Z,14.39
2018-06-30T08:38:44.512Z,14.31
2018-06-30T08:39:44.534Z,14.34
2018-06-30T08:40:44.555Z,14.3
2018-06-30T08:41:44.638Z,13.95
2018-06-30T08:42:44.520Z,13.87
2018-06-30T08:43:44.592Z,13.88
2018-06-30T08:44:44.642Z,14.02
2018-06-30T08:45:44.514Z,14.09
2018-06-30T08:46:44.614Z,14.09
2018-06-30T08:47:44.615Z,14.09
2018-06-30T08:48:44.573Z,13.91
2018-06-30T08:49:44.644Z,14.18
2018-06-30T08:50:44.585Z,14.14
2018-06-30T08:51:44.628Z,14.23
2018-06-30T08:52:44.610Z,14.28
2018-06-30T08:53:44.746Z,14.02
2018-06-30T08:54:44.625Z,14.23
2018-06-30T08:55:45.622Z,14.27
2018-06-30T08:56:44.663Z,14.52
2018-06-30T08:57:44.723Z,14.02
2018-06-30T08:58:44.709Z,14.03
2018-06-30T08:59:44.787Z,14.01
2018-06-30T09:00:45.026Z,14.38
2018-06-30T09:01:44.644Z,14.3
2018-06-30T09:02:44.693Z,14.27
2018-06-30T09:03:45.678Z,14.54
2018-06-30T09:04:44.732Z,14.25
2018-06-30T09:05:44.686Z,14.25
2018-06-30T09:06:45.117Z,14.24
2018-06-30T09:07:44.789Z,14.33
2018-06-30T09:08:44.721Z,14.22
2018-06-30T09:09:44.593Z,13.96
2018-06-30T09:10:45.181Z,14.04
2018-06-30T09:11:44.552Z,14.07
2018-06-30T09:12:44.655Z,14.09
2018-06-30T09:13:44.612Z,14.15
2018-06-30T09:14:44.633Z,14.32
2018-06-30T09:15:44.632Z,14.2
2018-06-30T09:16:44.623Z,14.08
2018-06-30T09:18:15.451Z,14.07
2018-06-30T09:18:44.619Z,14.28
2018-06-30T09:19:44.644Z,14.24
2018-06-30T09:20:44.624Z,14.28
2018-06-30T09:21:44.574Z,14.34
2018-06-30T09:22:44.601Z,14.17
2018-06-30T09:23:44.589Z,14.19
2018-06-30T09:24:44.570Z,14.14
2018-06-30T09:25:44.622Z,14.15
2018-06-30T09:26:44.644Z,14.23
2018-06-30T09:27:44.611Z,14.16
2018-06-30T09:28:44.634Z,14.37
2018-06-30T09:29:45.190Z,14.31
2018-06-30T09:30:44.615Z,14.27
2018-06-30T09:31:44.597Z,14.37
2018-06-30T09:32:44.641Z,14.48
2018-06-30T09:33:44.577Z,14.26
2018-06-30T09:34:44.628Z,14.23
2018-06-30T09:35:44.620Z,14.21
2018-06-30T09:36:44.602Z,14.24
2018-06-30T09:37:44.592Z,14.24
2018-06-30T09:38:44.656Z,14.29
2018-06-30T09:39:44.616Z,14.21
2018-06-30T09:40:44.685Z,14.36
2018-06-30T09:41:44.714Z,14.2
2018-06-30T09:42:44.698Z,14.27
2018-06-30T09:43:44.651Z,14.34
2018-06-30T09:44:45.342Z,14.17
2018-06-30T09:45:44.604Z,14.25
2018-06-30T09:46:44.907Z,14.28
2018-06-30T09:47:44.754Z,14.23
2018-06-30T09:48:44.758Z,14.13
2018-06-30T09:49:44.799Z,13.35
2018-06-30T09:50:44.792Z,13.65
2018-06-30T09:51:45.037Z,14.09
2018-06-30T09:52:44.746Z,13.94
2018-06-30T09:53:44.681Z,14.18
2018-06-30T09:54:44.795Z,14.24
2018-06-30T09:55:44.889Z,14.36
2018-06-30T09:56:46.097Z,14.38
2018-06-30T09:57:44.829Z,14.38
2018-06-30T09:58:44.837Z,14.44
2018-06-30T09:59:44.771Z,14.48
2018-06-30T10:00:44.878Z,14.54
2018-06-30T10:01:44.860Z,14.34
2018-06-30T10:02:44.854Z,14.4
2018-06-30T10:03:44.849Z,14.36
2018-06-30T10:04:44.879Z,14.27
2018-06-30T10:05:44.906Z,14.13
2018-06-30T10:06:45.208Z,14.04
2018-06-30T10:07:44.900Z,14.09
2018-06-30T10:08:44.891Z,14.16
2018-06-30T10:09:44.787Z,14.43
2018-06-30T10:10:44.900Z,14.51
2018-06-30T10:11:44.837Z,14.3
2018-06-30T10:12:44.956Z,14.21
2018-06-30T10:13:44.932Z,14.1
2018-06-30T10:14:45.123Z,14.36
2018-06-30T10:15:44.958Z,14.24
2018-06-30T10:16:44.935Z,14.14
2018-06-30T10:17:44.938Z,14.03
2018-06-30T10:18:44.973Z,14.14
2018-06-30T10:19:44.973Z,14.33
2018-06-30T10:20:45.188Z,14.25
2018-06-30T10:21:44.674Z,14.25
2018-06-30T10:22:45.160Z,14.32
2018-06-30T10:23:44.985Z,14.2
2018-06-30T10:24:44.952Z,14.28
2018-06-30T10:25:46.993Z,14.33
2018-06-30T10:26:44.897Z,14.32
2018-06-30T10:27:44.904Z,14.11
2018-06-30T10:28:45.011Z,14.22
2018-06-30T10:29:45.058Z,14.34
2018-06-30T10:30:44.715Z,14.27
2018-06-30T10:31:44.720Z,14.39
2018-06-30T10:32:44.730Z,14.17
2018-06-30T10:33:44.686Z,14.39
2018-06-30T10:34:44.684Z,14.32
2018-06-30T10:35:44.732Z,14.36
2018-06-30T10:36:44.699Z,14.46
2018-06-30T10:37:45.581Z,14.34
2018-06-30T10:38:44.755Z,14.27
2018-06-30T10:39:45.078Z,14.28
2018-06-30T10:40:44.953Z,14.33
2018-06-30T10:41:44.760Z,14.62
2018-06-30T10:42:44.796Z,14.39
2018-06-30T10:43:44.808Z,14.27
2018-06-30T10:44:45.200Z,14.4
2018-06-30T10:45:45.036Z,14.38
2018-06-30T10:46:44.822Z,14.35
2018-06-30T10:47:44.815Z,14.34
2018-06-30T10:48:44.752Z,14.16
2018-06-30T10:49:44.826Z,14.47
2018-06-30T10:50:45.083Z,14.06
2018-06-30T10:51:44.857Z,14.34
2018-06-30T10:52:45.086Z,14.38
2018-06-30T10:53:44.740Z,14.35
2018-06-30T10:54:44.860Z,14.31
2018-06-30T10:55:45.859Z,14.39
2018-06-30T10:56:44.751Z,14.46
2018-06-30T10:57:44.729Z,14.52
2018-06-30T10:58:44.898Z,14.53
2018-06-30T10:59:44.867Z,14.35
2018-06-30T11:00:44.794Z,14.62
2018-06-30T11:01:44.916Z,14.74
2018-06-30T11:02:45.086Z,14.64
2018-06-30T11:03:45.116Z,14.62
2018-06-30T11:04:44.851Z,14.44
2018-06-30T11:05:45.199Z,14.63
2018-06-30T11:06:44.776Z,14.61
2018-06-30T11:07:45.269Z,14.5
2018-06-30T11:08:44.963Z,14.68
2018-06-30T11:09:44.798Z,14.8
2018-06-30T11:10:44.876Z,14.71
2018-06-30T11:11:44.820Z,14.74
2018-06-30T11:12:45.635Z,14.5
2018-06-30T11:13:44.914Z,14.72
2018-06-30T11:14:44.822Z,14.68
2018-06-30T11:15:44.819Z,14.68
2018-06-30T11:16:44.825Z,14.59
2018-06-30T11:17:44.869Z,14.43
2018-06-30T11:18:44.819Z,14.35
2018-06-30T11:19:44.959Z,14.65
2018-06-30T11:20:44.756Z,14.48
2018-06-30T11:21:44.735Z,14.35
2018-06-30T11:22:44.948Z,14.21
2018-06-30T11:23:44.883Z,14.36
2018-06-30T11:24:44.916Z,14.3
2018-06-30T11:25:44.901Z,14.31
2018-06-30T11:26:44.797Z,14.27
2018-06-30T11:27:44.867Z,14.33
2018-06-30T11:28:44.905Z,14.48
2018-06-30T11:29:44.924Z,14.24
2018-06-30T11:30:44.799Z,14.16
2018-06-30T11:31:44.819Z,14.57
2018-06-30T11:32:44.821Z,14.3
2018-06-30T11:33:44.852Z,14.5
2018-06-30T11:34:44.784Z,14.28
2018-06-30T11:35:44.769Z,14.1
2018-06-30T11:36:44.754Z,14.11
2018-06-30T11:37:44.821Z,14.27
2018-06-30T11:38:44.782Z,14.3
2018-06-30T11:39:44.743Z,14.35
2018-06-30T11:40:45.779Z,14.32
2018-06-30T11:41:44.940Z,14.29
2018-06-30T11:42:44.766Z,14.19
2018-06-30T11:43:44.933Z,14.28
2018-06-30T11:44:44.766Z,14.29
2018-06-30T11:45:44.773Z,14.31
2018-06-30T11:46:44.928Z,14.3
2018-06-30T11:47:44.922Z,14.42
2018-06-30T11:48:44.814Z,14.34
2018-06-30T11:49:44.775Z,14.17
2018-06-30T11:50:44.856Z,14.42
2018-06-30T11:51:44.814Z,14.59
2018-06-30T11:52:44.843Z,14.37
2018-06-30T11:53:44.881Z,14.2
2018-06-30T11:54:44.828Z,14.02
2018-06-30T11:55:44.914Z,14.26
2018-06-30T11:56:44.963Z,14.58
2018-06-30T11:57:44.940Z,14.55
2018-06-30T11:58:45.048Z,14.63
2018-06-30T11:59:44.925Z,14.4
2018-06-30T12:00:44.789Z,14.52
2018-06-30T12:01:46.885Z,14.53
2018-06-30T12:02:44.938Z,14.48
2018-06-30T12:03:44.798Z,14.36
2018-06-30T12:04:44.888Z,14.46
2018-06-30T12:05:44.837Z,14.27
2018-06-30T12:06:44.861Z,14.4
2018-06-30T12:07:44.994Z,14.18
2018-06-30T12:08:44.898Z,14.24
2018-06-30T12:09:44.932Z,14.14
2018-06-30T12:10:45.021Z,14.01
2018-06-30T12:11:44.934Z,14.24
2018-06-30T12:12:44.907Z,14.46
2018-06-30T12:13:44.912Z,14.57
2018-06-30T12:14:44.829Z,14.41
2018-06-30T12:15:44.838Z,14.14
2018-06-30T12:16:45.066Z,14.26
2018-06-30T12:17:44.968Z,14.59
2018-06-30T12:18:44.825Z,14.45
2018-06-30T12:19:44.963Z,14.5
2018-06-30T12:20:44.901Z,14.41
2018-06-30T12:21:45.006Z,14.43
2018-06-30T12:22:45.169Z,14.27
2018-06-30T12:23:44.879Z,14.49
2018-06-30T12:24:44.814Z,14.34
2018-06-30T12:25:45.305Z,14.47
2018-06-30T12:26:45.045Z,14.45
2018-06-30T12:27:44.920Z,14.38
2018-06-30T12:28:45.523Z,14.36
2018-06-30T12:29:44.832Z,14.21
2018-06-30T12:30:44.910Z,14.47
2018-06-30T12:31:45.020Z,14.28
2018-06-30T12:32:44.842Z,14.64
2018-06-30T12:33:44.889Z,14.64
2018-06-30T12:34:44.880Z,14.78
2018-06-30T12:35:44.840Z,14.87
2018-06-30T12:36:45.013Z,14.61
2018-06-30T12:37:44.890Z,14.48
2018-06-30T12:38:45.205Z,14.53
2018-06-30T12:39:44.863Z,14.54
2018-06-30T12:40:45.709Z,14.6
2018-06-30T12:41:44.936Z,14.67
2018-06-30T12:42:44.885Z,14.81
2018-06-30T12:43:45.662Z,14.93
2018-06-30T12:44:44.900Z,14.81
2018-06-30T12:45:45.121Z,15.16
2018-06-30T12:46:45.653Z,14.85
2018-06-30T12:47:45.058Z,14.96
2018-06-30T12:48:44.954Z,14.95
2018-06-30T12:49:44.877Z,15.13
2018-06-30T12:50:44.875Z,14.75
2018-06-30T12:51:44.882Z,14.52
2018-06-30T12:52:44.840Z,14.6
2018-06-30T12:53:44.856Z,14.82
2018-06-30T12:54:45.428Z,14.58
2018-06-30T12:55:44.952Z,14.58